Terminal Aerodrome Forecast
Issued by NWS

Home | Current Version | Previous Version | Text Only | Print | Product List | Glossary On
Versions: 1 2 3 4 5 6 7 8 9 10 11 12
000
FTUS45 KRIW 140500
TAFJAC
TAF
KJAC 140522Z 1406/1506 36007KT P6SM FEW110
     FM141800 VRB05KT P6SM SCT090 SCT110
     FM142000 VRB10G25KT P6SM VCTS FEW060CB OVC100
     FM150300 36006KT P6SM VCSH SCT070 BKN090
      AMD LTD TO CLD VIS AND WIND=

USA.gov is the U.S. government's official web portal to all federal, state and local government web resources and services.